Time;durP1;ratioP1;P1;durP2;ratioP2;P2;SDS_P1;SDS_P2;PMS_P1;PMS_P2;Temp;Humidity;BMP_temperature;BMP_pressure;BME280_temperature;BME280_humidity;BME280_pressure;Samples;Min_cycle;Max_cycle;Signal;HPM_P1;HPM_P2
2022/07/16 00:01:29;;;;;;;4.33;2.85;;;;;;;14.10;60.85;100847.20;1834778;77;25948;-82
2022/07/16 00:03:06;;;;;;;7.78;2.40;;;;;;;14.04;60.90;100846.68;1798038;77;28178;-82
2022/07/16 00:05:32;;;;;;;4.83;2.75;;;;;;;13.91;61.15;100845.62;1829466;77;25872;-82
2022/07/16 00:07:58;;;;;;;8.25;2.85;;;;;;;13.83;61.30;100851.70;1829161;77;25639;-82
2022/07/16 00:10:25;;;;;;;5.30;2.40;;;;;;;13.71;61.54;100860.86;1830422;77;25826;-82
2022/07/16 00:12:52;;;;;;;5.80;2.87;;;;;;;13.55;61.69;100850.45;1836534;77;25866;-82
2022/07/16 00:15:18;;;;;;;8.20;2.98;;;;;;;13.48;62.10;100856.30;1829626;77;28222;-83
2022/07/16 00:17:44;;;;;;;6.47;2.80;;;;;;;13.45;62.29;100860.72;1829411;77;25811;-82
2022/07/16 00:20:11;;;;;;;5.08;2.67;;;;;;;13.43;62.60;100852.02;1824029;77;25727;-83
2022/07/16 00:22:37;;;;;;;8.18;2.62;;;;;;;13.44;62.79;100859.08;1828863;77;25730;-82
2022/07/16 00:25:05;;;;;;;7.40;3.00;;;;;;;13.43;62.74;100860.09;1830174;77;25922;-83
2022/07/16 00:27:31;;;;;;;7.67;2.60;;;;;;;13.45;62.80;100863.95;1842404;77;27487;-82
2022/07/16 00:29:57;;;;;;;9.43;2.72;;;;;;;13.44;63.14;100860.42;1831901;77;25839;-82
2022/07/16 00:32:24;;;;;;;5.25;2.40;;;;;;;13.42;63.27;100855.75;1832619;77;25830;-82
2022/07/16 00:34:50;;;;;;;8.50;2.70;;;;;;;13.43;63.34;100850.67;1832527;77;25619;-83
2022/07/16 00:37:16;;;;;;;11.65;3.87;;;;;;;13.42;63.49;100849.03;1825087;77;25782;-82
2022/07/16 00:39:43;;;;;;;4.30;2.62;;;;;;;13.44;63.83;100850.16;1831597;77;27670;-82
2022/07/16 00:42:09;;;;;;;5.08;2.67;;;;;;;13.46;63.92;100850.80;1840138;77;25868;-82
2022/07/16 00:44:35;;;;;;;5.95;2.67;;;;;;;13.48;64.27;100850.08;1834724;77;25851;-81
2022/07/16 00:47:02;;;;;;;7.12;2.95;;;;;;;13.49;64.43;100845.86;1837199;77;26079;-82
2022/07/16 00:49:28;;;;;;;7.90;3.10;;;;;;;13.51;64.56;100846.49;1831447;77;25331;-82
2022/07/16 00:51:54;;;;;;;9.73;4.42;;;;;;;13.52;64.65;100844.10;1835898;77;27512;-82
2022/07/16 00:54:22;;;;;;;9.45;3.98;;;;;;;13.54;64.70;100840.69;1826900;77;26517;-82
2022/07/16 00:56:48;;;;;;;9.00;3.60;;;;;;;13.56;64.65;100844.52;1831383;77;25793;-82
2022/07/16 00:59:15;;;;;;;4.50;2.98;;;;;;;13.58;65.16;100837.91;1834806;77;25979;-82
2022/07/16 01:01:42;;;;;;;6.15;2.80;;;;;;;13.58;65.14;100833.87;1828553;77;25812;-83
2022/07/16 01:04:10;;;;;;;7.60;3.52;;;;;;;13.60;65.13;100838.54;1830686;77;27483;-82
2022/07/16 01:06:37;;;;;;;10.93;5.08;;;;;;;13.64;65.13;100837.11;1843468;77;26454;-82
2022/07/16 01:09:03;;;;;;;10.25;3.87;;;;;;;13.69;64.93;100835.16;1834165;77;26022;-82
2022/07/16 01:11:32;;;;;;;5.42;2.75;;;;;;;13.72;64.72;100832.08;1837072;77;25904;-82
2022/07/16 01:14:01;;;;;;;5.08;2.90;;;;;;;13.71;64.61;100836.63;1836835;77;25841;-83
2022/07/16 01:16:28;;;;;;;7.92;2.90;;;;;;;13.75;64.47;100835.73;1826501;77;27449;-82
2022/07/16 01:18:54;;;;;;;5.42;2.22;;;;;;;13.78;64.54;100834.80;1820129;77;25879;-82
2022/07/16 01:21:21;;;;;;;8.55;2.70;;;;;;;13.77;64.22;100822.35;1840296;77;26411;-82
2022/07/16 01:23:49;;;;;;;5.50;2.42;;;;;;;13.79;64.03;100816.79;1839128;77;26059;-82
2022/07/16 01:26:15;;;;;;;11.78;2.70;;;;;;;13.79;64.21;100816.79;1834006;77;25821;-82
2022/07/16 01:28:41;;;;;;;4.30;2.27;;;;;;;13.80;64.11;100812.54;1836990;77;28447;-82
2022/07/16 01:31:10;;;;;;;6.28;2.55;;;;;;;13.81;64.02;100811.48;1835738;77;25820;-82
2022/07/16 01:33:40;;;;;;;5.78;2.35;;;;;;;13.80;63.96;100808.50;1842020;77;25880;-82
2022/07/16 01:36:11;;;;;;;6.08;2.35;;;;;;;13.80;63.99;100809.01;1829059;77;26409;-82
2022/07/16 01:38:39;;;;;;;;;;;;;;;13.81;64.01;100813.37;1838337;77;25535;-82
2022/07/16 01:41:06;;;;;;;8.40;2.95;;;;;;;13.82;63.97;100807.78;1832807;77;28099;-83
2022/07/16 01:43:32;;;;;;;6.30;3.10;;;;;;;13.83;64.00;100812.66;1838315;77;25795;-82
2022/07/16 01:45:59;;;;;;;6.10;2.72;;;;;;;13.82;63.87;100811.81;1827471;77;25353;-83
2022/07/16 01:48:26;;;;;;;6.92;2.80;;;;;;;13.81;63.70;100806.64;1829090;77;26479;-82
2022/07/16 01:50:54;;;;;;;6.53;2.70;;;;;;;13.80;63.83;100805.81;1844405;77;25772;-82
2022/07/16 01:53:21;;;;;;;6.85;3.00;;;;;;;13.82;63.68;100802.91;1831010;77;27639;-83
2022/07/16 01:55:48;;;;;;;6.20;2.40;;;;;;;13.82;63.74;100804.25;1847711;77;26378;-82
2022/07/16 01:58:16;;;;;;;9.65;3.17;;;;;;;13.80;63.87;100804.97;1831892;77;25332;-82
2022/07/16 02:00:45;;;;;;;4.67;2.37;;;;;;;13.80;63.74;100801.77;1828371;77;25938;-82
2022/07/16 02:03:13;;;;;;;6.17;2.58;;;;;;;13.81;63.78;100798.03;1839208;77;26958;-82
2022/07/16 02:05:40;;;;;;;7.58;2.47;;;;;;;13.82;63.76;100805.59;1825359;77;27431;-82
2022/07/16 02:08:07;;;;;;;11.45;3.62;;;;;;;13.79;63.84;100798.75;1843963;77;26499;-82
2022/07/16 02:10:34;;;;;;;6.72;2.52;;;;;;;13.79;63.82;100803.33;1829236;77;25326;-82
2022/07/16 02:13:01;;;;;;;4.58;2.30;;;;;;;13.80;63.92;100802.28;1829703;77;26043;-82
2022/07/16 02:15:28;;;;;;;6.40;2.62;;;;;;;13.82;64.04;100798.86;1848857;77;25766;-82
2022/07/16 02:17:54;;;;;;;7.08;3.05;;;;;;;13.82;64.03;100798.36;1835606;77;27444;-82
2022/07/16 02:20:21;;;;;;;5.50;2.62;;;;;;;13.81;63.99;100793.98;1824255;77;25668;-82
2022/07/16 02:22:48;;;;;;;4.50;3.25;;;;;;;13.81;64.05;100789.14;1830058;77;25937;-82
2022/07/16 02:25:14;;;;;;;4.90;2.37;;;;;;;13.81;64.12;100793.98;1829179;77;25713;-82
2022/07/16 02:28:05;;;;;;;6.42;2.02;;;;;;;13.80;64.20;100792.86;1837854;77;25930;-82
2022/07/16 02:30:12;;;;;;;9.58;2.50;;;;;;;13.80;64.25;100790.16;1839882;77;27533;-82
2022/07/16 02:32:38;;;;;;;5.75;2.55;;;;;;;13.81;64.21;100786.45;1834962;77;25835;-82
2022/07/16 02:35:05;;;;;;;4.90;2.17;;;;;;;13.82;64.62;100790.28;1828480;77;25879;-82
2022/07/16 02:37:31;;;;;;;6.70;2.50;;;;;;;13.78;64.64;100784.98;1836126;77;25973;-83
2022/07/16 02:40:00;;;;;;;5.42;2.20;;;;;;;13.77;64.71;100780.63;1833302;77;25881;-83
2022/07/16 02:42:26;;;;;;;4.12;2.10;;;;;;;13.77;64.99;100786.00;1838559;77;27466;-82
2022/07/16 02:44:52;;;;;;;7.60;2.40;;;;;;;13.76;64.97;100783.02;1834296;77;26001;-82
2022/07/16 02:47:18;;;;;;;5.95;2.45;;;;;;;13.75;65.14;100785.92;1836921;76;25831;-82
2022/07/16 02:49:44;;;;;;;6.83;2.42;;;;;;;13.71;65.32;100778.75;1836158;76;26494;-82
2022/07/16 02:52:11;;;;;;;5.53;2.25;;;;;;;13.71;65.50;100780.09;1842254;76;25793;-82
2022/07/16 02:54:37;;;;;;;7.33;2.70;;;;;;;13.73;65.50;100777.19;1833119;76;27430;-82
2022/07/16 02:57:03;;;;;;;4.00;2.17;;;;;;;13.73;65.58;100778.53;1852535;76;25825;-82
2022/07/16 02:59:30;;;;;;;3.52;2.50;;;;;;;13.72;65.61;100783.11;1839140;76;25952;-82
2022/07/16 03:01:56;;;;;;;5.30;4.05;;;;;;;13.72;65.88;100779.58;1828425;76;25919;-82
2022/07/16 03:04:22;;;;;;;8.05;3.25;;;;;;;13.71;65.84;100785.48;1834968;76;25875;-83
2022/07/16 03:06:48;;;;;;;6.87;2.47;;;;;;;13.71;65.91;100784.64;1833465;76;27428;-82
2022/07/16 03:09:15;;;;;;;5.78;2.72;;;;;;;13.70;65.75;100778.95;1829276;76;25297;-82
2022/07/16 03:11:41;;;;;;;4.10;2.25;;;;;;;13.68;65.55;100781.86;1837325;77;25679;-82
2022/07/16 03:14:07;;;;;;;6.70;2.20;;;;;;;13.63;65.45;100774.90;1834687;76;25848;-82
2022/07/16 03:16:33;;;;;;;9.98;3.33;;;;;;;13.61;65.60;100772.92;1848555;76;25897;-83
2022/07/16 03:19:00;;;;;;;9.63;2.20;;;;;;;13.61;65.75;100771.58;1840614;77;27408;-82
2022/07/16 03:21:26;;;;;;;9.60;2.62;;;;;;;13.63;66.03;100773.55;1832606;77;25734;-82
2022/07/16 03:23:52;;;;;;;5.85;2.50;;;;;;;13.61;66.06;100786.38;1836064;77;26572;-82
2022/07/16 03:26:18;;;;;;;8.05;2.60;;;;;;;13.59;66.03;100779.54;1836470;77;25759;-82
2022/07/16 03:28:45;;;;;;;9.35;3.50;;;;;;;13.57;66.19;100782.44;1830229;77;25732;-82
2022/07/16 03:31:11;;;;;;;9.53;3.15;;;;;;;13.57;66.08;100789.67;1849767;76;28250;-82
2022/07/16 03:33:37;;;;;;;9.15;3.22;;;;;;;13.57;66.00;100797.75;1834928;77;25688;-82
2022/07/16 03:36:04;;;;;;;7.35;2.40;;;;;;;13.56;66.06;100796.08;1836328;77;25834;-82
2022/07/16 03:41:15;;;;;;;4.60;2.58;;;;;;;13.55;66.41;100782.32;1831635;77;25849;-82
2022/07/16 03:43:42;;;;;;;11.38;3.00;;;;;;;13.57;66.31;100780.25;1833772;76;27441;-82
2022/07/16 03:46:12;;;;;;;4.30;2.40;;;;;;;13.61;66.31;100781.51;1838099;77;25867;-82
2022/07/16 03:48:36;;;;;;;8.05;2.80;;;;;;;13.64;66.38;100781.12;1825638;77;25504;-82
2022/07/16 03:51:04;;;;;;;9.80;2.67;;;;;;;13.66;66.39;100777.70;1834638;77;26001;-82
2022/07/16 03:53:30;;;;;;;7.05;2.20;;;;;;;13.65;66.26;100780.91;1829821;77;25827;-82
2022/07/16 03:55:56;;;;;;;5.70;2.20;;;;;;;13.67;66.53;100779.34;1830311;77;27513;-82
2022/07/16 03:58:22;;;;;;;4.33;2.30;;;;;;;13.69;66.46;100779.97;1834040;77;25892;-82
2022/07/16 04:00:49;;;;;;;9.50;2.70;;;;;;;13.71;66.60;100781.44;1832086;77;25760;-82
2022/07/16 04:03:15;;;;;;;6.95;2.52;;;;;;;13.72;66.63;100779.58;1832071;77;25817;-82
2022/07/16 04:05:41;;;;;;;7.92;2.40;;;;;;;13.74;66.66;100777.01;1830673;77;25260;-82
2022/07/16 04:08:08;;;;;;;8.25;2.62;;;;;;;13.78;66.71;100785.50;1828218;77;27440;-81
2022/07/16 04:10:34;;;;;;;3.58;2.08;;;;;;;13.78;66.65;100784.98;1829306;77;26424;-82
2022/07/16 04:13:00;;;;;;;3.85;2.00;;;;;;;13.79;66.61;100781.79;1828138;77;25522;-82
2022/07/16 04:15:27;;;;;;;4.80;2.37;;;;;;;13.76;66.66;100778.14;1828632;77;25423;-82
2022/07/16 04:17:53;;;;;;;7.83;2.58;;;;;;;13.76;66.68;100780.33;1824872;77;25356;-82
2022/07/16 04:20:19;;;;;;;7.17;2.62;;;;;;;13.78;66.81;100785.50;1837294;77;27421;-82
2022/07/16 04:22:46;;;;;;;8.30;3.02;;;;;;;13.81;66.95;100781.88;1834475;77;25885;-82
2022/07/16 04:25:15;;;;;;;7.17;2.90;;;;;;;13.83;66.76;100786.57;1829812;77;25818;-82
2022/07/16 04:27:43;;;;;;;8.58;3.12;;;;;;;13.85;66.99;100790.39;1830422;77;26495;-82
2022/07/16 04:30:11;;;;;;;6.17;2.90;;;;;;;13.87;66.91;100785.63;1831708;77;25318;-82
2022/07/16 04:32:39;;;;;;;5.08;2.37;;;;;;;13.93;66.99;100778.08;1836090;77;27440;-82
2022/07/16 04:35:08;;;;;;;6.87;2.65;;;;;;;13.96;67.00;100779.55;1838768;77;25754;-82
2022/07/16 04:37:34;;;;;;;5.62;2.25;;;;;;;13.98;66.81;100782.86;1840875;77;25827;-82
2022/07/16 04:40:04;;;;;;;7.60;2.90;;;;;;;13.99;66.89;100777.26;1830436;77;25810;-82
2022/07/16 04:42:31;;;;;;;8.70;3.10;;;;;;;14.02;66.84;100774.68;1833456;77;25542;-82
2022/07/16 04:44:57;;;;;;;12.15;2.65;;;;;;;14.03;67.00;100772.31;1830499;77;28273;-82
2022/07/16 04:47:23;;;;;;;5.50;2.12;;;;;;;14.07;67.06;100776.25;1833497;77;25725;-82
2022/07/16 04:49:49;;;;;;;11.88;2.60;;;;;;;14.10;67.19;100786.59;1830633;77;25309;-82
2022/07/16 04:52:16;;;;;;;8.08;2.60;;;;;;;14.12;67.12;100775.94;1832125;77;25712;-82
2022/07/16 04:54:42;;;;;;;5.20;2.47;;;;;;;14.18;67.10;100777.80;1842824;77;25889;-82
2022/07/16 04:57:09;;;;;;;6.20;2.12;;;;;;;14.22;67.13;100775.55;1840607;77;27442;-82
2022/07/16 04:59:35;;;;;;;5.87;2.50;;;;;;;14.26;67.33;100774.09;1839119;77;25791;-83
2022/07/16 05:04:46;;;;;;;5.03;1.98;;;;;;;14.34;67.54;100771.22;1836212;77;26298;-82
2022/07/16 05:07:12;;;;;;;10.32;2.98;;;;;;;14.38;67.83;100769.77;1842424;77;25665;-82
2022/07/16 05:09:39;;;;;;;4.80;2.50;;;;;;;14.41;67.55;100763.44;1838624;77;27443;-82
2022/07/16 05:12:06;;;;;;;9.23;2.25;;;;;;;14.41;67.36;100767.48;1833488;77;26063;-83
2022/07/16 05:14:32;;;;;;;5.78;2.20;;;;;;;14.45;67.54;100766.05;1834630;77;25836;-82
2022/07/16 05:16:58;;;;;;;5.92;2.22;;;;;;;14.51;67.65;100770.61;1820345;77;25796;-82
2022/07/16 05:19:25;;;;;;;8.33;2.42;;;;;;;14.57;67.82;100767.08;1836981;77;25733;-82
2022/07/16 05:21:51;;;;;;;5.83;2.70;;;;;;;14.62;67.16;100772.68;1840234;77;28297;-83
2022/07/16 05:24:17;;;;;;;8.40;3.10;;;;;;;14.65;67.38;100768.72;1844409;77;25889;-82
2022/07/16 05:26:44;;;;;;;6.42;2.58;;;;;;;14.68;67.32;100758.36;1837863;77;25918;-82
2022/07/16 05:29:10;;;;;;;8.45;2.40;;;;;;;14.72;67.37;100757.92;1834725;77;26006;-82
2022/07/16 05:31:36;;;;;;;7.15;2.10;;;;;;;14.77;67.10;100763.52;1840203;77;25288;-82
2022/07/16 05:34:02;;;;;;;4.53;1.98;;;;;;;14.81;67.18;100760.20;1837097;77;27602;-82
2022/07/16 05:36:29;;;;;;;4.30;2.10;;;;;;;14.86;67.43;100748.28;1829880;77;25800;-82
2022/07/16 05:38:55;;;;;;;7.60;2.37;;;;;;;14.92;67.47;100746.59;1834021;77;25804;-82
2022/07/16 05:41:22;;;;;;;4.33;2.85;;;;;;;14.96;67.50;100749.17;1833051;77;25453;-82
2022/07/16 05:43:48;;;;;;;7.12;2.52;;;;;;;15.01;66.94;100746.13;1844157;77;25855;-82
2022/07/16 05:46:16;;;;;;;10.50;2.27;;;;;;;15.05;67.07;100751.44;1798909;78;27470;-82
2022/07/16 05:48:43;;;;;;;3.85;2.00;;;;;;;15.11;67.36;100748.41;1783144;78;25477;-82
2022/07/16 05:51:09;;;;;;;10.72;2.52;;;;;;;15.15;67.28;100741.02;1806433;78;25332;-82
2022/07/16 05:53:38;;;;;;;8.35;2.90;;;;;;;15.22;67.04;100745.05;1775732;79;25807;-83
2022/07/16 05:56:05;;;;;;;11.73;2.52;;;;;;;15.27;66.72;100743.36;1812822;78;25778;-82
2022/07/16 05:58:31;;;;;;;6.87;2.72;;;;;;;15.31;66.89;100741.87;1780482;78;26976;-82
2022/07/16 06:00:58;;;;;;;7.08;1.85;;;;;;;15.35;66.74;100743.11;1783246;80;25310;-82
2022/07/16 06:03:24;;;;;;;7.00;2.87;;;;;;;15.41;66.72;100738.73;1790891;79;25798;-82
2022/07/16 06:05:50;;;;;;;7.45;2.58;;;;;;;15.47;66.87;100736.56;1808238;78;25873;-82
2022/07/16 06:08:16;;;;;;;4.28;2.10;;;;;;;15.53;66.64;100732.16;1806537;78;25769;-82
2022/07/16 06:10:43;;;;;;;6.53;2.85;;;;;;;15.56;66.56;100735.27;1776788;79;28343;-81
2022/07/16 06:13:10;;;;;;;6.40;2.00;;;;;;;15.63;66.54;100740.64;1808391;78;25367;-82
2022/07/16 06:15:37;;;;;;;3.33;2.10;;;;;;;15.68;66.53;100744.85;1808252;78;25751;-82
2022/07/16 06:18:03;;;;;;;4.47;2.27;;;;;;;15.71;66.32;100745.78;1804717;78;25851;-82
2022/07/16 06:20:30;;;;;;;8.95;2.45;;;;;;;15.73;66.09;100745.04;1807572;79;25932;-82
2022/07/16 06:22:57;;;;;;;5.55;1.95;;;;;;;15.75;65.95;100732.15;1804338;78;27418;-82
2022/07/16 06:25:24;;;;;;;19.50;3.02;;;;;;;15.79;65.70;100733.36;1798024;79;25745;-82
2022/07/16 06:27:50;;;;;;;7.08;2.30;;;;;;;15.84;65.83;100733.04;1801758;79;25737;-83
2022/07/16 06:30:17;;;;;;;5.83;2.10;;;;;;;15.90;65.45;100736.73;1799674;79;26677;-82
2022/07/16 06:32:44;;;;;;;6.65;2.30;;;;;;;15.98;65.64;100733.23;1801880;79;25832;-82
2022/07/16 06:35:12;;;;;;;7.83;2.50;;;;;;;16.06;65.24;100729.43;1801627;78;27669;-82
2022/07/16 06:37:39;;;;;;;7.22;2.45;;;;;;;16.17;65.34;100730.91;1808076;78;25322;-82
2022/07/16 06:40:06;;;;;;;7.22;2.10;;;;;;;16.31;65.24;100728.94;1805013;77;26527;-82
2022/07/16 06:42:33;;;;;;;5.62;1.98;;;;;;;16.46;65.47;100727.25;1811200;78;25935;-82
2022/07/16 06:44:59;;;;;;;8.93;1.80;;;;;;;16.63;65.37;100729.20;1807271;78;25319;-82
2022/07/16 06:47:26;;;;;;;7.10;1.77;;;;;;;16.84;64.89;100727.94;1801506;79;27424;-82
2022/07/16 06:49:53;;;;;;;6.60;2.00;;;;;;;16.96;64.53;100722.08;1807207;78;25749;-82
2022/07/16 06:52:19;;;;;;;4.45;2.20;;;;;;;17.06;64.01;100726.98;1797939;78;26276;-82
2022/07/16 06:54:46;;;;;;;10.00;2.08;;;;;;;17.16;63.23;100719.14;1808163;78;26266;-82
2022/07/16 06:57:12;;;;;;;5.28;2.20;;;;;;;17.31;63.26;100715.00;1797522;79;25292;-82
2022/07/16 06:59:38;;;;;;;2.00;1.20;;;;;;;17.46;63.09;100711.37;1803176;79;27577;-82
2022/07/16 07:02:05;;;;;;;4.87;1.98;;;;;;;17.64;63.26;100713.25;1807370;78;25790;-83
2022/07/16 07:04:31;;;;;;;5.20;1.75;;;;;;;17.81;61.97;100714.25;1798181;78;25309;-81
2022/07/16 07:06:57;;;;;;;6.08;1.60;;;;;;;17.94;61.34;100713.22;1795263;79;25752;-83
2022/07/16 07:09:23;;;;;;;7.33;1.45;;;;;;;18.07;61.20;100710.31;1803354;78;25893;-83
2022/07/16 07:11:50;;;;;;;6.78;1.75;;;;;;;18.22;60.65;100709.34;1804323;78;28266;-83
2022/07/16 07:14:16;;;;;;;5.33;1.70;;;;;;;18.33;59.68;100709.33;1803827;79;26584;-82
2022/07/16 07:16:42;;;;;;;6.03;1.70;;;;;;;18.43;60.00;100706.05;1790603;79;25737;-82
2022/07/16 07:19:09;;;;;;;5.20;1.10;;;;;;;18.51;59.31;100703.53;1780041;79;25838;-82
2022/07/16 07:21:37;;;;;;;5.35;1.55;;;;;;;18.61;58.77;100704.59;1776461;79;25824;-82
2022/07/16 07:24:04;;;;;;;5.62;1.70;;;;;;;18.75;59.28;100700.59;1784484;79;27423;-82
2022/07/16 07:26:30;;;;;;;5.12;1.35;;;;;;;18.93;58.35;100694.17;1789169;79;25876;-83
2022/07/16 07:28:57;;;;;;;5.60;1.85;;;;;;;19.09;58.05;100698.88;1784769;79;25299;-82
2022/07/16 07:31:23;;;;;;;9.53;1.70;;;;;;;19.20;56.73;100696.11;1789695;79;26484;-82
2022/07/16 07:33:49;;;;;;;6.53;1.30;;;;;;;19.32;55.24;100696.61;1788492;79;26169;-82
2022/07/16 07:36:16;;;;;;;2.90;1.00;;;;;;;19.36;55.58;100691.02;1794489;79;27596;-82
2022/07/16 07:38:42;;;;;;;5.37;1.20;;;;;;;19.43;55.91;100695.78;1792351;79;26602;-83
2022/07/16 07:41:09;;;;;;;7.35;1.70;;;;;;;19.49;55.11;100695.64;1787381;79;26000;-81
2022/07/16 07:43:35;;;;;;;7.15;1.82;;;;;;;19.51;54.61;100696.75;1775438;79;25775;-82
2022/07/16 07:46:01;;;;;;;5.53;1.62;;;;;;;19.53;54.13;100697.33;1804341;78;25813;-82
2022/07/16 07:48:28;;;;;;;2.00;1.05;;;;;;;19.52;54.37;100694.34;1816346;78;27612;-82
2022/07/16 07:50:54;;;;;;;5.42;1.60;;;;;;;19.50;53.88;100686.44;1804197;78;25791;-83
2022/07/16 07:53:20;;;;;;;3.27;1.40;;;;;;;19.51;53.23;100689.95;1811860;78;25805;-82
2022/07/16 07:55:47;;;;;;;3.87;1.32;;;;;;;19.49;52.73;100690.20;1812792;78;25793;-82
2022/07/16 07:58:13;;;;;;;3.75;1.57;;;;;;;19.47;53.54;100692.88;1810438;78;25808;-82
2022/07/16 08:00:40;;;;;;;3.80;1.72;;;;;;;19.49;54.38;100684.77;1801035;78;28319;-82
2022/07/16 08:03:07;;;;;;;6.97;1.70;;;;;;;19.59;54.16;100686.88;1802163;78;25940;-82
2022/07/16 08:05:34;;;;;;;4.00;1.65;;;;;;;19.71;54.25;100678.95;1807703;78;25876;-82
2022/07/16 08:08:00;;;;;;;5.47;1.17;;;;;;;19.83;53.21;100675.62;1807378;78;25804;-82
2022/07/16 08:10:27;;;;;;;7.08;1.20;;;;;;;19.99;52.94;100672.08;1810208;78;25776;-83
2022/07/16 08:12:54;;;;;;;4.95;1.20;;;;;;;20.15;52.57;100671.80;1786722;78;27593;-82
2022/07/16 08:15:20;;;;;;;4.65;1.42;;;;;;;20.27;52.01;100669.05;1796004;78;25987;-82
2022/07/16 08:17:46;;;;;;;5.20;1.37;;;;;;;20.36;52.79;100670.28;1798268;78;26200;-83
2022/07/16 08:20:14;;;;;;;4.78;1.65;;;;;;;20.42;51.21;100664.64;1811075;78;25813;-82
2022/07/16 08:22:41;;;;;;;3.70;1.40;;;;;;;20.45;51.15;100667.41;1772761;80;25801;-82
2022/07/16 08:27:53;;;;;;;5.72;1.52;;;;;;;20.53;51.00;100661.55;1807678;78;25877;-82
2022/07/16 08:30:20;;;;;;;3.62;1.10;;;;;;;20.58;50.92;100661.61;1776237;80;26615;-82
2022/07/16 08:32:47;;;;;;;7.45;1.20;;;;;;;20.63;51.41;100657.61;1776607;80;25838;-83
2022/07/16 08:35:13;;;;;;;7.67;1.47;;;;;;;20.62;50.06;100645.89;1775858;80;26502;-82
2022/07/16 08:37:43;;;;;;;5.05;1.05;;;;;;;20.61;50.19;100643.43;1779877;80;27675;-83
2022/07/16 08:40:18;;;;;;;7.78;0.90;;;;;;;20.64;50.07;100646.46;1775915;80;25893;-82
2022/07/16 08:42:46;;;;;;;2.95;0.98;;;;;;;20.73;50.22;100646.84;1776476;80;25321;-82
2022/07/16 08:45:15;;;;;;;3.42;1.20;;;;;;;20.79;48.17;100641.75;1773685;80;25318;-83
2022/07/16 08:47:41;;;;;;;2.98;1.02;;;;;;;20.87;49.47;100642.67;1773434;80;26661;-82
2022/07/16 08:50:13;;;;;;;3.98;1.00;;;;;;;20.91;47.90;100636.20;1777974;80;27615;-84
2022/07/16 08:52:43;;;;;;;5.85;1.10;;;;;;;21.04;49.38;100634.48;1771169;80;25842;-83
2022/07/16 08:55:10;;;;;;;3.33;0.93;;;;;;;21.20;48.11;100639.02;1778320;80;25916;-83
2022/07/16 08:57:39;;;;;;;3.45;1.02;;;;;;;21.16;47.29;100633.80;1774103;80;25495;-83
2022/07/16 09:00:11;;;;;;;6.62;1.57;;;;;;;21.23;47.79;100631.72;1775089;80;26376;-83
2022/07/16 09:02:38;;;;;;;2.95;1.20;;;;;;;21.23;46.86;100639.35;1780102;80;27426;-83
2022/07/16 09:05:05;;;;;;;2.67;1.07;;;;;;;21.26;46.38;100639.36;1780152;80;25915;-83
2022/07/16 09:07:32;;;;;;;2.05;0.82;;;;;;;21.20;46.92;100630.31;1787537;80;26653;-83
2022/07/16 09:09:58;;;;;;;3.77;0.90;;;;;;;21.18;46.39;100629.75;1784409;80;25807;-83
2022/07/16 09:12:44;;;;;;;5.03;0.90;;;;;;;21.05;45.55;100632.86;1775968;80;25941;-83
2022/07/16 09:15:25;;;;;;;5.47;0.78;;;;;;;20.93;43.79;100640.32;1786988;80;28431;-83
2022/07/16 09:18:11;;;;;;;;;;;;;;;20.76;45.76;100633.55;1772027;80;25852;-83
2022/07/16 09:20:48;;;;;;;5.97;1.52;;;;;;;20.71;45.98;100628.59;1781422;80;25906;-84
2022/07/16 09:23:22;;;;;;;4.47;1.05;;;;;;;20.68;46.08;100629.08;1771478;80;25839;-83
2022/07/16 09:25:53;;;;;;;3.65;0.68;;;;;;;20.76;46.09;100623.22;1779402;80;25849;-83
2022/07/16 09:28:21;;;;;;;8.75;1.10;;;;;;;20.90;46.28;100625.84;1780408;80;27405;-84
2022/07/16 09:30:48;;;;;;;2.30;0.80;;;;;;;21.10;47.54;100626.13;1779341;80;25889;-84
2022/07/16 09:33:18;;;;;;;2.80;0.80;;;;;;;21.17;46.51;100625.36;1804599;78;25833;-83
2022/07/16 09:35:46;;;;;;;2.37;1.00;;;;;;;21.10;45.76;100617.13;1805106;78;25899;-83
2022/07/16 09:38:13;;;;;;;1.90;0.90;;;;;;;20.97;46.14;100625.11;1803724;78;25853;-83
2022/07/16 09:40:43;;;;;;;2.12;0.88;;;;;;;20.92;46.36;100627.77;1795087;78;27467;-83
2022/07/16 09:43:18;;;;;;;2.35;1.05;;;;;;;20.86;46.20;100622.51;1795685;78;25957;-83
2022/07/16 09:45:57;;;;;;;4.17;1.10;;;;;;;20.70;45.64;100629.12;1788990;79;25757;-83
2022/07/16 09:48:28;;;;;;;4.85;1.05;;;;;;;20.59;45.96;100628.69;1788403;79;25727;-82
2022/07/16 09:50:57;;;;;;;10.13;1.40;;;;;;;20.53;46.69;100628.90;1774633;80;25698;-84
2022/07/16 09:53:26;;;;;;;2.67;1.00;;;;;;;20.57;47.05;100628.12;1776040;80;27435;-83
2022/07/16 09:56:06;;;;;;;1.70;0.90;;;;;;;20.69;46.53;100623.94;1779419;80;25886;-83
2022/07/16 09:58:36;;;;;;;3.30;1.10;;;;;;;20.76;45.97;100621.30;1776310;79;25886;-83
2022/07/16 10:01:05;;;;;;;2.27;1.00;;;;;;;20.79;46.84;100622.70;1781739;79;25798;-83
2022/07/16 10:03:31;;;;;;;2.98;1.10;;;;;;;20.80;46.72;100619.44;1776524;80;26437;-83
2022/07/16 10:05:58;;;;;;;6.12;1.10;;;;;;;20.79;46.48;100617.25;1771364;79;27436;-84
2022/07/16 10:08:24;;;;;;;4.87;1.02;;;;;;;20.81;46.28;100612.94;1773913;79;25826;-83
2022/07/16 10:10:51;;;;;;;4.90;1.67;;;;;;;20.81;45.74;100608.85;1775369;79;25768;-83
2022/07/16 10:13:25;;;;;;;6.10;1.50;;;;;;;20.76;45.77;100612.33;1774837;80;26254;-83
2022/07/16 10:15:52;;;;;;;5.83;1.67;;;;;;;20.74;46.18;100602.23;1777780;79;25944;-83
2022/07/16 10:18:44;;;;;;;3.40;1.25;;;;;;;20.76;46.57;100604.96;1773833;79;27454;-83
2022/07/16 10:21:21;;;;;;;4.90;1.02;;;;;;;20.78;46.18;100599.28;1769695;79;25841;-83
2022/07/16 10:24:04;;;;;;;5.83;1.20;;;;;;;20.80;45.08;100599.85;1770164;79;26013;-83
2022/07/16 10:26:32;;;;;;;2.35;1.42;;;;;;;20.80;46.20;100601.22;1748255;80;26065;-83
2022/07/16 10:28:59;;;;;;;2.65;1.30;;;;;;;20.85;46.37;100597.73;1774889;80;25329;-83
2022/07/16 10:31:41;;;;;;;3.00;1.10;;;;;;;20.89;46.42;100590.17;1770661;80;27450;-83
2022/07/16 10:34:19;;;;;;;2.50;1.00;;;;;;;20.93;46.60;100589.94;1767138;79;26544;-82
2022/07/16 10:36:55;;;;;;;4.50;1.25;;;;;;;20.93;46.21;100589.94;1772123;80;26362;-83
2022/07/16 10:39:25;;;;;;;3.55;0.90;;;;;;;20.92;46.36;100587.45;1774739;79;26166;-83
2022/07/16 10:42:04;;;;;;;4.10;1.13;;;;;;;20.91;46.37;100584.46;1775601;79;25951;-82
2022/07/16 10:44:48;;;;;;;2.60;0.85;;;;;;;20.91;46.41;100585.83;1769563;79;27612;-84
2022/07/16 10:47:17;;;;;;;4.25;1.30;;;;;;;20.92;46.67;100584.73;1775366;80;26471;-84
2022/07/16 10:49:45;;;;;;;3.80;1.10;;;;;;;20.96;46.24;100581.77;1808246;78;26003;-82
2022/07/16 10:52:15;;;;;;;7.22;1.37;;;;;;;20.97;46.34;100582.91;1773869;79;25918;-83
2022/07/16 10:54:53;;;;;;;3.13;1.40;;;;;;;20.97;45.82;100580.18;1778243;80;25853;-84
2022/07/16 10:57:31;;;;;;;3.12;1.25;;;;;;;20.91;45.69;100583.93;1806079;78;27453;-83
2022/07/16 10:59:59;;;;;;;4.45;1.80;;;;;;;20.78;45.39;100585.11;1807692;78;25983;-83
2022/07/16 11:02:25;;;;;;;4.05;1.30;;;;;;;20.69;45.57;100579.02;1780143;80;25777;-83
2022/07/16 11:04:53;;;;;;;5.55;1.37;;;;;;;20.59;45.69;100579.70;1798200;78;25786;-84
2022/07/16 11:07:22;;;;;;;7.55;1.37;;;;;;;20.48;45.68;100577.11;1777673;80;25763;-83
2022/07/16 11:09:53;;;;;;;5.78;0.95;;;;;;;20.38;45.77;100579.14;1775371;79;27605;-84
2022/07/16 11:12:25;;;;;;;4.42;1.17;;;;;;;20.33;46.49;100570.94;1808358;78;25748;-84
2022/07/16 11:14:54;;;;;;;5.25;1.30;;;;;;;20.31;46.50;100570.37;1813876;78;25793;-83
2022/07/16 11:17:24;;;;;;;4.10;1.10;;;;;;;20.32;46.75;100566.55;1805121;78;25830;-83
2022/07/16 11:19:55;;;;;;;4.30;2.05;;;;;;;20.35;46.65;100566.59;1784819;79;25886;-84
2022/07/16 11:22:24;;;;;;;;;;;;;;;20.39;46.53;100565.84;1812149;78;26872;-84
2022/07/16 11:24:55;;;;;;;4.25;1.37;;;;;;;20.45;47.04;100555.84;1807720;78;25968;-83
2022/07/16 11:27:36;;;;;;;3.90;1.30;;;;;;;20.52;46.46;100554.59;1759349;80;25864;-83
2022/07/16 11:30:09;;;;;;;4.37;1.25;;;;;;;20.65;46.46;100552.03;1800197;78;25950;-83
2022/07/16 11:32:46;;;;;;;3.85;1.47;;;;;;;20.78;46.12;100545.64;1803248;78;25892;-84
2022/07/16 11:35:13;;;;;;;7.15;1.40;;;;;;;20.93;46.61;100539.56;1812411;78;27453;-84